sensor_id;sensor_type;location;lat;lon;timestamp;temperature;humidity
13123;DHT22;6627;50.920;12.050;2023-01-09T00:00:28;6.50;99.90
13123;DHT22;6627;50.920;12.050;2023-01-09T00:02:55;6.50;99.90
13123;DHT22;6627;50.920;12.050;2023-01-09T00:05:23;6.50;99.90
13123;DHT22;6627;50.920;12.050;2023-01-09T00:07:50;6.50;99.90
13123;DHT22;6627;50.920;12.050;2023-01-09T00:10:17;6.40;99.90
13123;DHT22;6627;50.920;12.050;2023-01-09T00:12:44;6.50;99.90
13123;DHT22;6627;50.920;12.050;2023-01-09T00:15:13;6.50;99.90
13123;DHT22;6627;50.920;12.050;2023-01-09T00:17:40;6.50;99.90
13123;DHT22;6627;50.920;12.050;2023-01-09T00:20:08;6.50;99.90
13123;DHT22;6627;50.920;12.050;2023-01-09T00:22:36;6.60;99.90
13123;DHT22;6627;50.920;12.050;2023-01-09T00:25:04;6.50;99.90
13123;DHT22;6627;50.920;12.050;2023-01-09T00:27:33;6.50;99.90
13123;DHT22;6627;50.920;12.050;2023-01-09T00:30:01;6.40;99.90
13123;DHT22;6627;50.920;12.050;2023-01-09T00:32:31;6.40;99.90
13123;DHT22;6627;50.920;12.050;2023-01-09T00:34:58;6.40;99.90
13123;DHT22;6627;50.920;12.050;2023-01-09T00:37:25;6.40;99.90
13123;DHT22;6627;50.920;12.050;2023-01-09T00:39:53;6.30;99.90
13123;DHT22;6627;50.920;12.050;2023-01-09T00:42:22;6.20;99.90
13123;DHT22;6627;50.920;12.050;2023-01-09T00:44:55;6.30;99.90
13123;DHT22;6627;50.920;12.050;2023-01-09T00:47:28;6.40;99.90
13123;DHT22;6627;50.920;12.050;2023-01-09T00:52:33;6.70;99.90
13123;DHT22;6627;50.920;12.050;2023-01-09T00:55:04;6.80;99.90
13123;DHT22;6627;50.920;12.050;2023-01-09T00:57:32;6.90;99.90
13123;DHT22;6627;50.920;12.050;2023-01-09T01:00:00;7.10;99.90
13123;DHT22;6627;50.920;12.050;2023-01-09T01:02:28;7.10;99.90
13123;DHT22;6627;50.920;12.050;2023-01-09T01:04:56;7.20;99.90
13123;DHT22;6627;50.920;12.050;2023-01-09T01:07:41;7.30;99.90
13123;DHT22;6627;50.920;12.050;2023-01-09T01:10:11;7.30;99.90
13123;DHT22;6627;50.920;12.050;2023-01-09T01:12:43;7.30;99.90
13123;DHT22;6627;50.920;12.050;2023-01-09T01:15:10;7.40;99.90
13123;DHT22;6627;50.920;12.050;2023-01-09T01:17:39;7.40;99.90
13123;DHT22;6627;50.920;12.050;2023-01-09T01:20:11;7.40;99.90
13123;DHT22;6627;50.920;12.050;2023-01-09T01:22:39;7.30;99.90
13123;DHT22;6627;50.920;12.050;2023-01-09T01:25:08;7.40;99.90
13123;DHT22;6627;50.920;12.050;2023-01-09T01:27:36;7.50;99.90
13123;DHT22;6627;50.920;12.050;2023-01-09T01:30:05;7.60;99.90
13123;DHT22;6627;50.920;12.050;2023-01-09T01:32:34;7.60;99.90
13123;DHT22;6627;50.920;12.050;2023-01-09T01:35:03;7.50;99.90
13123;DHT22;6627;50.920;12.050;2023-01-09T01:37:32;7.50;99.90
13123;DHT22;6627;50.920;12.050;2023-01-09T01:40:00;7.50;99.90
13123;DHT22;6627;50.920;12.050;2023-01-09T01:42:27;7.50;99.90
13123;DHT22;6627;50.920;12.050;2023-01-09T01:45:04;7.40;99.90
13123;DHT22;6627;50.920;12.050;2023-01-09T01:47:39;7.40;99.90
13123;DHT22;6627;50.920;12.050;2023-01-09T01:50:16;7.40;99.90
13123;DHT22;6627;50.920;12.050;2023-01-09T01:52:55;7.30;99.90
13123;DHT22;6627;50.920;12.050;2023-01-09T01:58:01;7.20;99.90
13123;DHT22;6627;50.920;12.050;2023-01-09T02:00:34;7.20;99.90
13123;DHT22;6627;50.920;12.050;2023-01-09T02:03:05;7.10;99.90
13123;DHT22;6627;50.920;12.050;2023-01-09T02:05:34;7.10;99.90
13123;DHT22;6627;50.920;12.050;2023-01-09T02:08:05;6.90;99.90
13123;DHT22;6627;50.920;12.050;2023-01-09T02:10:34;6.80;99.90
13123;DHT22;6627;50.920;12.050;2023-01-09T02:13:03;6.80;99.90
13123;DHT22;6627;50.920;12.050;2023-01-09T02:15:41;6.80;99.90
13123;DHT22;6627;50.920;12.050;2023-01-09T02:18:26;6.80;99.90
13123;DHT22;6627;50.920;12.050;2023-01-09T02:21:03;6.90;99.90
13123;DHT22;6627;50.920;12.050;2023-01-09T02:24:35;6.90;99.90
13123;DHT22;6627;50.920;12.050;2023-01-09T02:27:33;6.90;99.90
13123;DHT22;6627;50.920;12.050;2023-01-09T02:30:30;6.90;99.90
13123;DHT22;6627;50.920;12.050;2023-01-09T02:33:19;6.90;99.90
13123;DHT22;6627;50.920;12.050;2023-01-09T02:36:07;6.90;99.90
13123;DHT22;6627;50.920;12.050;2023-01-09T02:38:52;6.80;99.90
13123;DHT22;6627;50.920;12.050;2023-01-09T02:41:31;6.90;99.90
13123;DHT22;6627;50.920;12.050;2023-01-09T02:44:19;6.90;99.90
13123;DHT22;6627;50.920;12.050;2023-01-09T02:47:00;6.80;99.90
13123;DHT22;6627;50.920;12.050;2023-01-09T02:49:29;6.70;99.90
13123;DHT22;6627;50.920;12.050;2023-01-09T02:52:08;6.70;99.90
13123;DHT22;6627;50.920;12.050;2023-01-09T02:57:35;6.70;99.90
13123;DHT22;6627;50.920;12.050;2023-01-09T03:00:24;6.70;99.90
13123;DHT22;6627;50.920;12.050;2023-01-09T03:03:06;6.70;99.90
13123;DHT22;6627;50.920;12.050;2023-01-09T03:05:40;6.70;99.90
13123;DHT22;6627;50.920;12.050;2023-01-09T03:08:14;6.70;99.90
13123;DHT22;6627;50.920;12.050;2023-01-09T03:10:49;6.70;99.90
13123;DHT22;6627;50.920;12.050;2023-01-09T03:13:23;6.70;99.90
13123;DHT22;6627;50.920;12.050;2023-01-09T03:15:55;6.70;99.90
13123;DHT22;6627;50.920;12.050;2023-01-09T03:18:28;6.70;99.90
13123;DHT22;6627;50.920;12.050;2023-01-09T03:20:57;6.80;99.90
13123;DHT22;6627;50.920;12.050;2023-01-09T03:23:24;6.80;99.90
13123;DHT22;6627;50.920;12.050;2023-01-09T03:25:52;6.80;99.90
13123;DHT22;6627;50.920;12.050;2023-01-09T03:28:24;6.80;99.90
13123;DHT22;6627;50.920;12.050;2023-01-09T03:30:53;6.80;99.90
13123;DHT22;6627;50.920;12.050;2023-01-09T03:33:21;6.70;99.90
13123;DHT22;6627;50.920;12.050;2023-01-09T03:35:49;6.60;99.90
13123;DHT22;6627;50.920;12.050;2023-01-09T03:38:16;6.60;99.90
13123;DHT22;6627;50.920;12.050;2023-01-09T03:40:43;6.50;99.90
13123;DHT22;6627;50.920;12.050;2023-01-09T03:43:10;6.60;99.90
13123;DHT22;6627;50.920;12.050;2023-01-09T03:48:05;6.50;99.90
13123;DHT22;6627;50.920;12.050;2023-01-09T03:50:32;6.50;99.90
13123;DHT22;6627;50.920;12.050;2023-01-09T03:53:02;6.40;99.90
13123;DHT22;6627;50.920;12.050;2023-01-09T03:55:30;6.40;99.90
13123;DHT22;6627;50.920;12.050;2023-01-09T03:57:57;6.40;99.90
13123;DHT22;6627;50.920;12.050;2023-01-09T04:00:24;6.40;99.90
13123;DHT22;6627;50.920;12.050;2023-01-09T04:02:51;6.40;99.90
13123;DHT22;6627;50.920;12.050;2023-01-09T04:05:18;6.40;99.90
13123;DHT22;6627;50.920;12.050;2023-01-09T04:07:45;6.40;99.90
13123;DHT22;6627;50.920;12.050;2023-01-09T04:10:14;6.40;99.90
13123;DHT22;6627;50.920;12.050;2023-01-09T04:12:42;6.40;99.90
13123;DHT22;6627;50.920;12.050;2023-01-09T04:15:10;6.40;99.90
13123;DHT22;6627;50.920;12.050;2023-01-09T04:17:37;6.40;99.90
13123;DHT22;6627;50.920;12.050;2023-01-09T04:20:05;6.40;99.90
13123;DHT22;6627;50.920;12.050;2023-01-09T04:22:33;6.40;99.90
13123;DHT22;6627;50.920;12.050;2023-01-09T04:25:00;6.40;99.90
13123;DHT22;6627;50.920;12.050;2023-01-09T04:29:56;6.50;99.90
13123;DHT22;6627;50.920;12.050;2023-01-09T04:32:23;6.50;99.90
13123;DHT22;6627;50.920;12.050;2023-01-09T04:37:20;6.50;99.90
13123;DHT22;6627;50.920;12.050;2023-01-09T04:39:49;6.50;99.90
13123;DHT22;6627;50.920;12.050;2023-01-09T04:42:18;6.60;99.90
13123;DHT22;6627;50.920;12.050;2023-01-09T04:44:46;6.60;99.90
13123;DHT22;6627;50.920;12.050;2023-01-09T04:47:13;6.50;99.90
13123;DHT22;6627;50.920;12.050;2023-01-09T04:49:40;6.60;99.90
13123;DHT22;6627;50.920;12.050;2023-01-09T04:52:07;6.60;99.90
13123;DHT22;6627;50.920;12.050;2023-01-09T04:54:34;6.50;99.90
13123;DHT22;6627;50.920;12.050;2023-01-09T04:57:01;6.50;99.90
13123;DHT22;6627;50.920;12.050;2023-01-09T04:59:28;6.50;99.90
13123;DHT22;6627;50.920;12.050;2023-01-09T05:04:24;6.60;99.90
13123;DHT22;6627;50.920;12.050;2023-01-09T05:06:52;6.60;99.90
13123;DHT22;6627;50.920;12.050;2023-01-09T05:09:19;6.60;99.90
13123;DHT22;6627;50.920;12.050;2023-01-09T05:11:47;6.50;99.90
13123;DHT22;6627;50.920;12.050;2023-01-09T05:14:14;6.50;99.90
13123;DHT22;6627;50.920;12.050;2023-01-09T05:16:41;6.50;99.90
13123;DHT22;6627;50.920;12.050;2023-01-09T05:19:09;6.50;99.90
13123;DHT22;6627;50.920;12.050;2023-01-09T05:21:37;6.50;99.90
13123;DHT22;6627;50.920;12.050;2023-01-09T05:24:05;6.50;99.90
13123;DHT22;6627;50.920;12.050;2023-01-09T05:26:32;6.50;99.90
13123;DHT22;6627;50.920;12.050;2023-01-09T05:28:59;6.60;99.90
13123;DHT22;6627;50.920;12.050;2023-01-09T05:31:27;6.60;99.90
13123;DHT22;6627;50.920;12.050;2023-01-09T05:33:54;6.70;99.90
13123;DHT22;6627;50.920;12.050;2023-01-09T05:36:24;6.70;99.90
13123;DHT22;6627;50.920;12.050;2023-01-09T05:38:51;6.70;99.90
13123;DHT22;6627;50.920;12.050;2023-01-09T05:41:18;6.60;99.90
13123;DHT22;6627;50.920;12.050;2023-01-09T05:43:46;6.60;99.90
13123;DHT22;6627;50.920;12.050;2023-01-09T05:46:13;6.60;99.90
13123;DHT22;6627;50.920;12.050;2023-01-09T05:51:09;6.60;99.90
13123;DHT22;6627;50.920;12.050;2023-01-09T05:53:37;6.60;99.90
13123;DHT22;6627;50.920;12.050;2023-01-09T05:56:05;6.70;99.90
13123;DHT22;6627;50.920;12.050;2023-01-09T05:58:32;6.80;99.90
13123;DHT22;6627;50.920;12.050;2023-01-09T06:00:59;6.80;99.90
13123;DHT22;6627;50.920;12.050;2023-01-09T06:03:27;7.00;99.90
13123;DHT22;6627;50.920;12.050;2023-01-09T06:05:54;7.10;99.90
13123;DHT22;6627;50.920;12.050;2023-01-09T06:08:21;7.00;99.90
13123;DHT22;6627;50.920;12.050;2023-01-09T06:10:50;7.10;99.90
13123;DHT22;6627;50.920;12.050;2023-01-09T06:13:17;7.10;99.90
13123;DHT22;6627;50.920;12.050;2023-01-09T06:15:45;7.10;99.90
13123;DHT22;6627;50.920;12.050;2023-01-09T06:18:13;7.10;99.90
13123;DHT22;6627;50.920;12.050;2023-01-09T06:20:40;6.90;99.90
13123;DHT22;6627;50.920;12.050;2023-01-09T06:23:09;6.90;99.90
13123;DHT22;6627;50.920;12.050;2023-01-09T06:25:36;6.90;99.90
13123;DHT22;6627;50.920;12.050;2023-01-09T06:28:05;6.90;99.90
13123;DHT22;6627;50.920;12.050;2023-01-09T06:30:32;6.90;99.90
13123;DHT22;6627;50.920;12.050;2023-01-09T06:32:59;7.00;99.90
13123;DHT22;6627;50.920;12.050;2023-01-09T06:35:27;7.00;99.90
13123;DHT22;6627;50.920;12.050;2023-01-09T06:37:54;7.00;99.90
13123;DHT22;6627;50.920;12.050;2023-01-09T06:40:21;6.90;99.90
13123;DHT22;6627;50.920;12.050;2023-01-09T06:42:49;7.00;99.90
13123;DHT22;6627;50.920;12.050;2023-01-09T06:45:17;7.00;99.90
13123;DHT22;6627;50.920;12.050;2023-01-09T06:47:44;7.00;99.90
13123;DHT22;6627;50.920;12.050;2023-01-09T06:50:12;7.00;99.90
13123;DHT22;6627;50.920;12.050;2023-01-09T06:52:39;7.10;99.90
13123;DHT22;6627;50.920;12.050;2023-01-09T06:55:07;7.10;99.90
13123;DHT22;6627;50.920;12.050;2023-01-09T06:57:35;7.20;99.90
13123;DHT22;6627;50.920;12.050;2023-01-09T07:00:03;7.20;99.90
13123;DHT22;6627;50.920;12.050;2023-01-09T07:02:32;7.30;99.90
13123;DHT22;6627;50.920;12.050;2023-01-09T07:04:59;7.30;99.90
13123;DHT22;6627;50.920;12.050;2023-01-09T07:07:27;7.40;99.90
13123;DHT22;6627;50.920;12.050;2023-01-09T07:09:54;7.50;99.90
13123;DHT22;6627;50.920;12.050;2023-01-09T07:12:21;7.70;99.90
13123;DHT22;6627;50.920;12.050;2023-01-09T07:14:48;7.70;99.90
13123;DHT22;6627;50.920;12.050;2023-01-09T07:17:15;7.80;99.90
13123;DHT22;6627;50.920;12.050;2023-01-09T07:19:44;7.80;99.90
13123;DHT22;6627;50.920;12.050;2023-01-09T07:22:11;7.80;99.90
13123;DHT22;6627;50.920;12.050;2023-01-09T07:24:38;8.00;99.90
13123;DHT22;6627;50.920;12.050;2023-01-09T07:27:05;8.00;99.90
13123;DHT22;6627;50.920;12.050;2023-01-09T07:29:32;8.00;99.90
13123;DHT22;6627;50.920;12.050;2023-01-09T07:32:00;7.90;99.90
13123;DHT22;6627;50.920;12.050;2023-01-09T07:34:28;8.00;99.90
13123;DHT22;6627;50.920;12.050;2023-01-09T07:36:56;8.00;99.90
13123;DHT22;6627;50.920;12.050;2023-01-09T07:39:23;8.00;99.90
13123;DHT22;6627;50.920;12.050;2023-01-09T07:41:51;8.20;99.90
13123;DHT22;6627;50.920;12.050;2023-01-09T07:44:18;8.10;99.90
13123;DHT22;6627;50.920;12.050;2023-01-09T07:46:45;8.00;99.90
13123;DHT22;6627;50.920;12.050;2023-01-09T07:49:12;8.10;99.90
13123;DHT22;6627;50.920;12.050;2023-01-09T07:51:40;8.10;99.90
13123;DHT22;6627;50.920;12.050;2023-01-09T07:54:09;8.00;99.90
13123;DHT22;6627;50.920;12.050;2023-01-09T07:56:37;8.00;99.90
13123;DHT22;6627;50.920;12.050;2023-01-09T07:59:05;8.10;99.90
13123;DHT22;6627;50.920;12.050;2023-01-09T08:01:32;8.20;99.90
13123;DHT22;6627;50.920;12.050;2023-01-09T08:03:59;8.20;99.90
13123;DHT22;6627;50.920;12.050;2023-01-09T08:06:27;8.20;99.90
13123;DHT22;6627;50.920;12.050;2023-01-09T08:08:55;8.20;99.90
13123;DHT22;6627;50.920;12.050;2023-01-09T08:11:24;8.30;99.90
13123;DHT22;6627;50.920;12.050;2023-01-09T08:13:52;8.20;99.90
13123;DHT22;6627;50.920;12.050;2023-01-09T08:16:19;8.20;99.90
13123;DHT22;6627;50.920;12.050;2023-01-09T08:18:46;8.20;99.90
13123;DHT22;6627;50.920;12.050;2023-01-09T08:21:13;8.20;99.90
13123;DHT22;6627;50.920;12.050;2023-01-09T08:23:40;8.20;99.90
13123;DHT22;6627;50.920;12.050;2023-01-09T08:26:10;8.10;99.90
13123;DHT22;6627;50.920;12.050;2023-01-09T08:28:39;8.10;99.90
13123;DHT22;6627;50.920;12.050;2023-01-09T08:31:06;8.10;99.90
13123;DHT22;6627;50.920;12.050;2023-01-09T08:33:33;8.10;99.90
13123;DHT22;6627;50.920;12.050;2023-01-09T08:36:00;8.10;99.90
13123;DHT22;6627;50.920;12.050;2023-01-09T08:40:55;8.20;99.90
13123;DHT22;6627;50.920;12.050;2023-01-09T08:43:22;8.10;99.90
13123;DHT22;6627;50.920;12.050;2023-01-09T08:46:17;8.00;99.90
13123;DHT22;6627;50.920;12.050;2023-01-09T08:49:04;7.90;99.90
13123;DHT22;6627;50.920;12.050;2023-01-09T08:51:31;7.90;99.90
13123;DHT22;6627;50.920;12.050;2023-01-09T08:53:59;7.90;99.90
13123;DHT22;6627;50.920;12.050;2023-01-09T08:56:26;8.00;99.90
13123;DHT22;6627;50.920;12.050;2023-01-09T08:58:53;8.00;99.90
13123;DHT22;6627;50.920;12.050;2023-01-09T09:01:22;8.00;99.90
13123;DHT22;6627;50.920;12.050;2023-01-09T09:03:49;8.00;99.90
13123;DHT22;6627;50.920;12.050;2023-01-09T09:06:16;8.00;99.90
13123;DHT22;6627;50.920;12.050;2023-01-09T09:08:43;8.00;99.90
13123;DHT22;6627;50.920;12.050;2023-01-09T09:11:10;8.00;99.90
13123;DHT22;6627;50.920;12.050;2023-01-09T09:13:37;8.00;99.90
13123;DHT22;6627;50.920;12.050;2023-01-09T09:16:05;8.10;99.90
13123;DHT22;6627;50.920;12.050;2023-01-09T09:18:34;8.10;99.90
13123;DHT22;6627;50.920;12.050;2023-01-09T09:21:01;8.00;99.90
13123;DHT22;6627;50.920;12.050;2023-01-09T09:23:28;8.10;99.90
13123;DHT22;6627;50.920;12.050;2023-01-09T09:25:55;8.20;99.90
13123;DHT22;6627;50.920;12.050;2023-01-09T09:28:22;8.40;99.90
13123;DHT22;6627;50.920;12.050;2023-01-09T09:30:49;8.60;99.90
13123;DHT22;6627;50.920;12.050;2023-01-09T09:33:16;8.70;99.90
13123;DHT22;6627;50.920;12.050;2023-01-09T09:35:45;8.80;99.90
13123;DHT22;6627;50.920;12.050;2023-01-09T09:38:12;8.90;99.90
13123;DHT22;6627;50.920;12.050;2023-01-09T09:41:07;9.00;99.90
13123;DHT22;6627;50.920;12.050;2023-01-09T09:44:10;9.20;99.90
13123;DHT22;6627;50.920;12.050;2023-01-09T09:47:07;9.40;99.90
13123;DHT22;6627;50.920;12.050;2023-01-09T09:49:49;9.40;99.90
13123;DHT22;6627;50.920;12.050;2023-01-09T09:52:29;9.30;99.90
13123;DHT22;6627;50.920;12.050;2023-01-09T09:55:13;9.20;99.90
13123;DHT22;6627;50.920;12.050;2023-01-09T09:57:45;9.10;99.90
13123;DHT22;6627;50.920;12.050;2023-01-09T10:00:16;9.00;99.90
13123;DHT22;6627;50.920;12.050;2023-01-09T10:02:47;9.00;99.90
13123;DHT22;6627;50.920;12.050;2023-01-09T10:05:23;9.10;99.90
13123;DHT22;6627;50.920;12.050;2023-01-09T10:08:01;9.10;99.90
13123;DHT22;6627;50.920;12.050;2023-01-09T10:10:34;9.10;99.90
13123;DHT22;6627;50.920;12.050;2023-01-09T10:13:08;9.10;99.90
13123;DHT22;6627;50.920;12.050;2023-01-09T10:16:05;9.10;99.90
13123;DHT22;6627;50.920;12.050;2023-01-09T10:18:48;9.10;1.00
13123;DHT22;6627;50.920;12.050;2023-01-09T10:21:31;9.00;1.00
13123;DHT22;6627;50.920;12.050;2023-01-09T10:27:13;9.20;99.90
13123;DHT22;6627;50.920;12.050;2023-01-09T10:29:53;9.20;1.00
13123;DHT22;6627;50.920;12.050;2023-01-09T10:32:51;9.10;99.90
13123;DHT22;6627;50.920;12.050;2023-01-09T10:35:39;9.00;1.00
13123;DHT22;6627;50.920;12.050;2023-01-09T10:38:20;9.00;1.00
13123;DHT22;6627;50.920;12.050;2023-01-09T10:40:55;8.90;99.90
13123;DHT22;6627;50.920;12.050;2023-01-09T10:43:30;8.90;99.90
13123;DHT22;6627;50.920;12.050;2023-01-09T10:46:04;8.80;99.90
13123;DHT22;6627;50.920;12.050;2023-01-09T10:48:37;8.80;1.00
13123;DHT22;6627;50.920;12.050;2023-01-09T10:51:15;8.80;1.00
13123;DHT22;6627;50.920;12.050;2023-01-09T10:53:48;8.70;1.00
13123;DHT22;6627;50.920;12.050;2023-01-09T10:56:22;8.60;1.00
13123;DHT22;6627;50.920;12.050;2023-01-09T10:58:52;8.60;1.00
13123;DHT22;6627;50.920;12.050;2023-01-09T11:01:27;8.60;99.90
13123;DHT22;6627;50.920;12.050;2023-01-09T11:03:57;8.60;1.00
13123;DHT22;6627;50.920;12.050;2023-01-09T11:06:31;8.60;1.00
13123;DHT22;6627;50.920;12.050;2023-01-09T11:09:04;8.70;44.80
13123;DHT22;6627;50.920;12.050;2023-01-09T11:11:35;8.70;99.90
13123;DHT22;6627;50.920;12.050;2023-01-09T11:14:05;8.80;99.90
13123;DHT22;6627;50.920;12.050;2023-01-09T11:16:50;8.90;99.90
13123;DHT22;6627;50.920;12.050;2023-01-09T11:19:19;8.90;1.00
13123;DHT22;6627;50.920;12.050;2023-01-09T11:24:27;8.90;99.90
13123;DHT22;6627;50.920;12.050;2023-01-09T11:30:16;9.00;99.90
13123;DHT22;6627;50.920;12.050;2023-01-09T11:32:48;9.00;1.00
13123;DHT22;6627;50.920;12.050;2023-01-09T11:35:24;9.00;1.00
13123;DHT22;6627;50.920;12.050;2023-01-09T11:38:03;9.00;75.30
13123;DHT22;6627;50.920;12.050;2023-01-09T11:40:43;9.00;99.90
13123;DHT22;6627;50.920;12.050;2023-01-09T11:43:19;8.90;99.90
13123;DHT22;6627;50.920;12.050;2023-01-09T11:45:56;8.90;1.00
13123;DHT22;6627;50.920;12.050;2023-01-09T11:48:52;8.90;1.00
13123;DHT22;6627;50.920;12.050;2023-01-09T11:51:24;8.90;1.00
13123;DHT22;6627;50.920;12.050;2023-01-09T11:54:01;8.90;99.90
13123;DHT22;6627;50.920;12.050;2023-01-09T11:56:38;8.90;1.00
13123;DHT22;6627;50.920;12.050;2023-01-09T11:59:13;8.90;1.00
13123;DHT22;6627;50.920;12.050;2023-01-09T12:01:52;8.90;1.00
13123;DHT22;6627;50.920;12.050;2023-01-09T12:04:33;9.00;1.00
13123;DHT22;6627;50.920;12.050;2023-01-09T12:07:19;9.00;99.90
13123;DHT22;6627;50.920;12.050;2023-01-09T12:10:46;9.00;99.90
13123;DHT22;6627;50.920;12.050;2023-01-09T12:13:38;9.10;99.90
13123;DHT22;6627;50.920;12.050;2023-01-09T12:16:25;9.30;1.00
13123;DHT22;6627;50.920;12.050;2023-01-09T12:19:19;9.40;1.00
13123;DHT22;6627;50.920;12.050;2023-01-09T12:22:10;9.40;99.90
13123;DHT22;6627;50.920;12.050;2023-01-09T12:25:04;9.50;1.00
13123;DHT22;6627;50.920;12.050;2023-01-09T12:27:51;9.60;99.90
13123;DHT22;6627;50.920;12.050;2023-01-09T12:30:39;9.50;1.00
13123;DHT22;6627;50.920;12.050;2023-01-09T12:33:28;9.50;99.90
13123;DHT22;6627;50.920;12.050;2023-01-09T12:36:10;9.50;1.00
13123;DHT22;6627;50.920;12.050;2023-01-09T12:38:49;9.50;1.00
13123;DHT22;6627;50.920;12.050;2023-01-09T12:41:44;9.50;99.90
13123;DHT22;6627;50.920;12.050;2023-01-09T12:44:45;9.30;1.00
13123;DHT22;6627;50.920;12.050;2023-01-09T12:47:44;9.30;1.00
13123;DHT22;6627;50.920;12.050;2023-01-09T12:50:37;9.20;92.10
13123;DHT22;6627;50.920;12.050;2023-01-09T12:53:23;9.10;99.90
13123;DHT22;6627;50.920;12.050;2023-01-09T12:55:58;9.10;99.90
13123;DHT22;6627;50.920;12.050;2023-01-09T12:58:36;9.00;1.00
13123;DHT22;6627;50.920;12.050;2023-01-09T13:01:12;8.80;1.00
13123;DHT22;6627;50.920;12.050;2023-01-09T13:03:47;8.60;1.00
13123;DHT22;6627;50.920;12.050;2023-01-09T13:06:23;8.50;99.90
13123;DHT22;6627;50.920;12.050;2023-01-09T13:09:01;8.50;1.00
13123;DHT22;6627;50.920;12.050;2023-01-09T13:11:43;8.50;1.00
13123;DHT22;6627;50.920;12.050;2023-01-09T13:14:20;8.40;72.00
13123;DHT22;6627;50.920;12.050;2023-01-09T13:16:53;8.40;99.90
13123;DHT22;6627;50.920;12.050;2023-01-09T13:19:27;8.30;99.90
13123;DHT22;6627;50.920;12.050;2023-01-09T13:24:34;8.30;99.90
13123;DHT22;6627;50.920;12.050;2023-01-09T13:27:11;8.30;99.90
13123;DHT22;6627;50.920;12.050;2023-01-09T13:29:44;8.30;1.00
13123;DHT22;6627;50.920;12.050;2023-01-09T13:32:24;8.30;1.00
13123;DHT22;6627;50.920;12.050;2023-01-09T13:35:11;8.30;1.00
13123;DHT22;6627;50.920;12.050;2023-01-09T13:37:41;8.30;1.00
13123;DHT22;6627;50.920;12.050;2023-01-09T13:40:28;8.20;1.00
13123;DHT22;6627;50.920;12.050;2023-01-09T13:43:00;8.20;1.00
13123;DHT22;6627;50.920;12.050;2023-01-09T13:45:30;8.10;1.00
13123;DHT22;6627;50.920;12.050;2023-01-09T13:48:23;8.10;1.00
13123;DHT22;6627;50.920;12.050;2023-01-09T13:51:34;8.00;45.90
13123;DHT22;6627;50.920;12.050;2023-01-09T13:57:31;8.10;99.90
13123;DHT22;6627;50.920;12.050;2023-01-09T14:03:18;8.10;99.90
13123;DHT22;6627;50.920;12.050;2023-01-09T14:06:21;8.10;99.90
13123;DHT22;6627;50.920;12.050;2023-01-09T14:09:09;8.00;99.90
13123;DHT22;6627;50.920;12.050;2023-01-09T14:11:45;8.00;99.90
13123;DHT22;6627;50.920;12.050;2023-01-09T14:14:24;8.10;99.90
13123;DHT22;6627;50.920;12.050;2023-01-09T14:16:55;8.10;99.90
13123;DHT22;6627;50.920;12.050;2023-01-09T14:19:34;8.10;99.90
13123;DHT22;6627;50.920;12.050;2023-01-09T14:22:03;8.00;99.90
13123;DHT22;6627;50.920;12.050;2023-01-09T14:24:32;8.00;99.90
13123;DHT22;6627;50.920;12.050;2023-01-09T14:30:34;8.00;99.90
13123;DHT22;6627;50.920;12.050;2023-01-09T14:33:04;8.00;99.90
13123;DHT22;6627;50.920;12.050;2023-01-09T14:35:51;7.90;99.90
13123;DHT22;6627;50.920;12.050;2023-01-09T14:38:28;7.90;99.90
13123;DHT22;6627;50.920;12.050;2023-01-09T14:41:00;7.90;99.90
13123;DHT22;6627;50.920;12.050;2023-01-09T14:43:41;8.00;99.90
13123;DHT22;6627;50.920;12.050;2023-01-09T14:46:15;7.90;99.90
13123;DHT22;6627;50.920;12.050;2023-01-09T14:48:58;7.90;99.90
13123;DHT22;6627;50.920;12.050;2023-01-09T14:51:34;7.80;99.90
13123;DHT22;6627;50.920;12.050;2023-01-09T14:54:14;7.80;99.90
13123;DHT22;6627;50.920;12.050;2023-01-09T14:56:53;7.80;99.90
13123;DHT22;6627;50.920;12.050;2023-01-09T14:59:21;7.80;99.90
13123;DHT22;6627;50.920;12.050;2023-01-09T15:01:49;7.70;99.90
13123;DHT22;6627;50.920;12.050;2023-01-09T15:04:30;7.70;99.90
13123;DHT22;6627;50.920;12.050;2023-01-09T15:07:00;7.70;99.90
13123;DHT22;6627;50.920;12.050;2023-01-09T15:09:31;7.60;99.90
13123;DHT22;6627;50.920;12.050;2023-01-09T15:12:08;7.60;99.90
13123;DHT22;6627;50.920;12.050;2023-01-09T15:14:42;7.60;99.90
13123;DHT22;6627;50.920;12.050;2023-01-09T15:17:18;7.70;99.90
13123;DHT22;6627;50.920;12.050;2023-01-09T15:19:47;7.70;99.90
13123;DHT22;6627;50.920;12.050;2023-01-09T15:22:23;7.70;99.90
13123;DHT22;6627;50.920;12.050;2023-01-09T15:24:54;7.60;99.90
13123;DHT22;6627;50.920;12.050;2023-01-09T15:27:21;7.50;99.90
13123;DHT22;6627;50.920;12.050;2023-01-09T15:29:50;7.20;99.90
13123;DHT22;6627;50.920;12.050;2023-01-09T15:32:22;7.10;99.90
13123;DHT22;6627;50.920;12.050;2023-01-09T15:34:53;6.90;99.90
13123;DHT22;6627;50.920;12.050;2023-01-09T15:37:26;6.80;99.90
13123;DHT22;6627;50.920;12.050;2023-01-09T15:39:56;6.70;99.90
13123;DHT22;6627;50.920;12.050;2023-01-09T15:42:28;6.50;99.90
13123;DHT22;6627;50.920;12.050;2023-01-09T15:45:22;6.50;99.90
13123;DHT22;6627;50.920;12.050;2023-01-09T15:47:52;6.60;99.90
13123;DHT22;6627;50.920;12.050;2023-01-09T15:52:54;6.40;99.90
13123;DHT22;6627;50.920;12.050;2023-01-09T15:55:24;6.50;99.90
13123;DHT22;6627;50.920;12.050;2023-01-09T15:58:00;6.40;99.90
13123;DHT22;6627;50.920;12.050;2023-01-09T16:00:37;6.40;99.90
13123;DHT22;6627;50.920;12.050;2023-01-09T16:03:19;6.40;99.90
13123;DHT22;6627;50.920;12.050;2023-01-09T16:05:51;6.30;99.90
13123;DHT22;6627;50.920;12.050;2023-01-09T16:08:25;6.20;99.90
13123;DHT22;6627;50.920;12.050;2023-01-09T16:10:58;6.20;99.90
13123;DHT22;6627;50.920;12.050;2023-01-09T16:13:30;6.30;99.90
13123;DHT22;6627;50.920;12.050;2023-01-09T16:16:05;6.30;99.90
13123;DHT22;6627;50.920;12.050;2023-01-09T16:18:35;6.20;99.90
13123;DHT22;6627;50.920;12.050;2023-01-09T16:21:20;6.30;99.90
13123;DHT22;6627;50.920;12.050;2023-01-09T16:23:59;6.00;99.90
13123;DHT22;6627;50.920;12.050;2023-01-09T16:26:29;5.80;99.90
13123;DHT22;6627;50.920;12.050;2023-01-09T16:29:25;5.70;99.90
13123;DHT22;6627;50.920;12.050;2023-01-09T16:31:59;5.60;99.90
13123;DHT22;6627;50.920;12.050;2023-01-09T16:34:27;5.50;99.90
13123;DHT22;6627;50.920;12.050;2023-01-09T16:36:54;5.60;99.90
13123;DHT22;6627;50.920;12.050;2023-01-09T16:39:22;5.50;99.90
13123;DHT22;6627;50.920;12.050;2023-01-09T16:41:50;5.40;99.90
13123;DHT22;6627;50.920;12.050;2023-01-09T16:44:36;5.20;99.90
13123;DHT22;6627;50.920;12.050;2023-01-09T16:47:07;5.30;99.90
13123;DHT22;6627;50.920;12.050;2023-01-09T16:49:35;5.60;99.90
13123;DHT22;6627;50.920;12.050;2023-01-09T16:52:10;5.80;99.90
13123;DHT22;6627;50.920;12.050;2023-01-09T16:54:40;5.90;99.90
13123;DHT22;6627;50.920;12.050;2023-01-09T16:57:15;6.10;99.90
13123;DHT22;6627;50.920;12.050;2023-01-09T16:59:44;6.10;99.90
13123;DHT22;6627;50.920;12.050;2023-01-09T17:02:16;6.20;99.90
13123;DHT22;6627;50.920;12.050;2023-01-09T17:04:46;6.20;99.90
13123;DHT22;6627;50.920;12.050;2023-01-09T17:07:14;6.10;99.90
13123;DHT22;6627;50.920;12.050;2023-01-09T17:09:43;5.90;99.90
13123;DHT22;6627;50.920;12.050;2023-01-09T17:12:16;5.80;99.90